Time;durP1;ratioP1;P1;durP2;ratioP2;P2;SDS_P1;SDS_P2;PMS_P1;PMS_P2;Temp;Humidity;BMP_temperature;BMP_pressure;BME280_temperature;BME280_humidity;BME280_pressure;Samples;Min_cycle;Max_cycle;Signal;HPM_P1;HPM_P2
2022/11/11 00:00:17;;;;;;;1.05;1.05;;;;;;;13.17;100.00;101248.31;5091985;28;20659;-72
2022/11/11 00:02:44;;;;;;;1.15;1.15;;;;;;;13.18;100.00;101247.47;5079079;28;20275;-73
2022/11/11 00:05:11;;;;;;;0.60;0.60;;;;;;;13.20;100.00;101242.28;5077745;28;20223;-72
2022/11/11 00:07:39;;;;;;;0.60;0.60;;;;;;;13.24;100.00;101239.78;5088009;28;20198;-72
2022/11/11 00:10:07;;;;;;;0.85;0.85;;;;;;;13.35;100.00;101253.06;5080972;28;20713;-73
2022/11/11 00:12:34;;;;;;;0.70;0.70;;;;;;;13.37;100.00;101249.66;5092446;28;20335;-72
2022/11/11 00:15:01;;;;;;;0.70;0.70;;;;;;;13.31;100.00;101239.09;5074768;28;20203;-72
2022/11/11 00:25:59;;;;;;;0.60;0.60;;;;;;;12.49;100.00;101162.47;5034256;28;20273;-73
2022/11/11 00:28:25;;;;;;;1.15;1.15;;;;;;;13.00;100.00;101251.34;5048773;28;20202;-72
2022/11/11 00:31:01;;;;;;;0.77;0.77;;;;;;;12.71;100.00;101240.22;5040499;28;20200;-72
2022/11/11 00:33:28;;;;;;;0.63;0.63;;;;;;;12.75;100.00;101247.25;5029065;28;20254;-72
2022/11/11 00:35:55;;;;;;;0.60;0.60;;;;;;;12.67;100.00;101246.19;5029216;28;20192;-72
2022/11/11 00:41:08;;;;;;;0.60;0.60;;;;;;;12.43;100.00;101233.44;5042792;28;20199;-72
2022/11/11 00:43:34;;;;;;;0.70;0.70;;;;;;;12.30;100.00;101232.25;5048241;28;20280;-72
2022/11/11 00:51:26;;;;;;;0.85;0.85;;;;;;;12.03;100.00;101233.19;5043906;28;20295;-72
2022/11/11 00:53:55;;;;;;;0.60;0.60;;;;;;;11.82;100.00;101221.38;5048323;28;20228;-72
2022/11/11 00:56:22;;;;;;;0.60;0.60;;;;;;;11.74;100.00;101219.38;5041020;28;20202;-72
2022/11/11 00:58:49;;;;;;;0.70;0.70;;;;;;;11.69;100.00;101223.56;5071107;28;20558;-72
2022/11/11 01:01:17;;;;;;;0.80;0.80;;;;;;;11.59;100.00;101213.75;5077253;28;20249;-73
2022/11/11 01:03:43;;;;;;;0.70;0.70;;;;;;;11.54;100.00;101220.50;5071937;28;20210;-72
2022/11/11 01:06:11;;;;;;;0.80;0.80;;;;;;;11.53;100.00;101216.16;5083029;28;20587;-72
2022/11/11 01:08:38;;;;;;;0.60;0.60;;;;;;;11.42;100.00;101218.44;5073008;28;20669;-73
2022/11/11 01:11:14;;;;;;;0.60;0.60;;;;;;;11.16;100.00;101163.16;5070517;28;20198;-73
2022/11/11 01:13:42;;;;;;;0.60;0.60;;;;;;;11.39;100.00;101213.16;5078738;28;20233;-73
2022/11/11 01:16:13;;;;;;;0.90;0.90;;;;;;;11.47;100.00;101208.19;5081577;28;20650;-72
2022/11/11 01:18:41;;;;;;;0.70;0.70;;;;;;;11.32;100.00;101212.09;5081892;28;20576;-73
2022/11/11 01:21:11;;;;;;;1.13;1.13;;;;;;;11.24;100.00;101187.59;5079066;28;20206;-73
2022/11/11 01:23:39;;;;;;;0.80;0.80;;;;;;;11.27;100.00;101205.88;5073275;28;20210;-71
2022/11/11 01:26:09;;;;;;;0.60;0.60;;;;;;;10.94;100.00;101156.44;5090498;28;20209;-72
2022/11/11 01:28:37;;;;;;;0.90;0.90;;;;;;;11.16;100.00;101203.81;5082723;28;20198;-71
2022/11/11 01:31:06;;;;;;;0.80;0.80;;;;;;;10.86;100.00;101163.09;5088331;28;20205;-72
2022/11/11 01:33:33;;;;;;;0.60;0.60;;;;;;;10.92;100.00;101188.34;5076299;28;20199;-72
2022/11/11 01:36:08;;;;;;;0.60;0.60;;;;;;;10.61;100.00;101138.94;5070502;28;20206;-72
2022/11/11 01:38:36;;;;;;;1.08;1.08;;;;;;;10.41;100.00;101114.97;5071023;28;20202;-72
2022/11/11 01:41:31;;;;;;;0.60;0.60;;;;;;;10.73;100.00;101176.53;5034040;28;20748;-72
2022/11/11 01:43:53;;;;;;;0.70;0.70;;;;;;;10.51;100.00;101129.09;5071735;28;20617;-72
2022/11/11 01:46:31;;;;;;;2.85;2.65;;;;;;;10.79;100.00;101191.38;5070091;28;20223;-72
2022/11/11 01:49:20;;;;;;;0.70;0.70;;;;;;;10.58;100.00;101156.97;5090140;28;20194;-72
2022/11/11 01:51:52;;;;;;;0.77;0.77;;;;;;;10.63;100.00;101184.81;5087018;28;20195;-72
2022/11/11 01:54:24;;;;;;;0.90;0.90;;;;;;;10.49;100.00;101187.81;5081990;28;20281;-72
2022/11/11 01:56:57;;;;;;;0.80;0.80;;;;;;;10.47;100.00;101184.28;5070468;28;20195;-71
2022/11/11 01:59:26;;;;;;;0.80;0.80;;;;;;;10.44;100.00;101173.00;5076229;28;20235;-72
2022/11/11 02:01:53;;;;;;;0.70;0.70;;;;;;;10.49;100.00;101191.25;5088175;28;20272;-71
2022/11/11 02:07:08;;;;;;;0.60;0.60;;;;;;;10.21;100.00;101098.75;5076234;28;20295;-71
2022/11/11 02:09:39;;;;;;;0.60;0.60;;;;;;;10.66;100.00;101184.06;5070126;28;20210;-71
2022/11/11 02:14:58;;;;;;;1.10;1.10;;;;;;;10.66;100.00;101177.16;5090324;28;20205;-73
2022/11/11 02:17:27;;;;;;;1.42;1.35;;;;;;;10.43;100.00;101140.09;5074809;28;20214;-72
2022/11/11 02:19:56;;;;;;;0.70;0.70;;;;;;;10.70;100.00;101170.34;5073281;28;20201;-72
2022/11/11 02:22:34;;;;;;;0.60;0.60;;;;;;;10.86;100.00;101173.47;5077468;28;20194;-72
2022/11/11 02:25:04;;;;;;;0.70;0.70;;;;;;;11.28;100.00;101167.81;5078122;28;20264;-72
2022/11/11 02:27:32;;;;;;;0.70;0.70;;;;;;;11.35;100.00;101147.25;5070403;28;20682;-72
2022/11/11 02:30:01;;;;;;;0.70;0.70;;;;;;;11.70;100.00;101157.78;5070130;28;20214;-72
2022/11/11 02:32:28;;;;;;;1.33;1.33;;;;;;;11.95;100.00;101148.97;5069951;28;20235;-72
2022/11/11 02:34:55;;;;;;;0.68;0.68;;;;;;;12.17;100.00;101172.94;5070043;28;20248;-72
2022/11/11 02:37:24;;;;;;;8.10;1.70;;;;;;;12.14;100.00;101153.78;5070188;28;20208;-72
2022/11/11 02:39:55;;;;;;;1.38;1.38;;;;;;;12.32;100.00;101188.94;5071400;28;20203;-72
2022/11/11 02:42:24;;;;;;;1.15;1.15;;;;;;;12.43;100.00;101176.22;5076536;28;20191;-72
2022/11/11 02:44:57;;;;;;;0.98;0.98;;;;;;;12.43;100.00;101184.91;5078198;28;20223;-72
2022/11/11 02:47:24;;;;;;;1.33;1.23;;;;;;;12.43;100.00;101166.69;5073616;28;20223;-72
2022/11/11 02:49:51;;;;;;;0.60;0.60;;;;;;;12.49;100.00;101185.88;5060008;28;20194;-71
2022/11/11 02:52:18;;;;;;;0.50;0.50;;;;;;;12.60;100.00;101189.63;5093470;28;20264;-71
2022/11/11 02:54:46;;;;;;;0.50;0.50;;;;;;;12.75;100.00;101201.28;5093316;28;20198;-72
2022/11/11 02:57:13;;;;;;;0.60;0.60;;;;;;;12.62;100.00;101175.84;5093072;28;20733;-72
2022/11/11 02:59:41;;;;;;;0.73;0.73;;;;;;;12.15;100.00;101119.16;5092828;28;20198;-72
2022/11/11 03:02:08;;;;;;;0.70;0.70;;;;;;;12.56;100.00;101199.06;5051777;28;20191;-72
2022/11/11 03:04:36;;;;;;;0.70;0.70;;;;;;;12.12;100.00;101127.75;5073520;28;20206;-72
2022/11/11 03:07:03;;;;;;;0.82;0.82;;;;;;;12.56;100.00;101214.69;5076792;28;20199;-72
2022/11/11 03:09:31;;;;;;;0.50;0.50;;;;;;;12.55;100.00;101186.94;5073294;28;20674;-73
2022/11/11 03:11:58;;;;;;;0.70;0.70;;;;;;;12.50;100.00;101172.03;5072583;28;20206;-73
2022/11/11 03:14:25;;;;;;;0.90;0.90;;;;;;;12.55;100.00;101193.84;5072295;28;20589;-72
2022/11/11 03:19:38;;;;;;;1.65;1.27;;;;;;;12.64;100.00;101212.28;5072359;28;20205;-72
2022/11/11 03:22:04;;;;;;;0.90;0.90;;;;;;;12.61;100.00;101183.59;5072408;28;20202;-72
2022/11/11 03:27:12;;;;;;;1.45;1.45;;;;;;;12.83;100.00;101183.25;5092270;28;20255;-72
2022/11/11 03:29:39;;;;;;;0.70;0.70;;;;;;;12.92;100.00;101217.31;5074351;28;20287;-72
2022/11/11 03:32:07;;;;;;;1.08;1.08;;;;;;;12.97;100.00;101215.69;5078609;28;20778;-72
2022/11/11 03:34:34;;;;;;;1.30;1.30;;;;;;;12.98;100.00;101214.88;5075014;28;20202;-71
2022/11/11 03:39:45;;;;;;;1.00;1.00;;;;;;;13.03;100.00;101208.03;5085031;28;20792;-71
2022/11/11 03:42:12;;;;;;;0.60;0.60;;;;;;;13.06;100.00;101208.09;5092173;28;20206;-71
2022/11/11 03:44:39;;;;;;;0.90;0.90;;;;;;;13.00;100.00;101212.28;5085459;28;20195;-71
2022/11/11 03:47:07;;;;;;;0.70;0.70;;;;;;;12.96;100.00;101194.81;5072302;28;20211;-72
2022/11/11 03:49:34;;;;;;;0.93;0.93;;;;;;;13.03;100.00;101218.44;5077249;28;20206;-72
2022/11/11 03:52:01;;;;;;;2.22;1.55;;;;;;;13.04;100.00;101219.31;5072613;28;20194;-72
2022/11/11 03:54:27;;;;;;;0.57;0.57;;;;;;;13.01;100.00;101201.91;5072003;28;20205;-72
2022/11/11 03:57:29;;;;;;;0.63;0.63;;;;;;;13.09;100.00;101217.72;5072511;28;20199;-72
2022/11/11 03:59:43;;;;;;;1.88;1.77;;;;;;;13.25;100.00;101220.72;5059345;28;20663;-72
2022/11/11 04:10:26;;;;;;;0.50;0.50;;;;;;;13.20;100.00;101196.28;5074233;28;20279;-72
2022/11/11 04:23:52;;;;;;;0.80;0.80;;;;;;;13.26;100.00;101212.06;5071447;28;20205;-72
2022/11/11 04:26:18;;;;;;;0.60;0.60;;;;;;;13.33;100.00;101213.97;5082013;28;20229;-71
2022/11/11 04:31:29;;;;;;;1.80;1.70;;;;;;;13.29;100.00;101217.34;5079185;28;20736;-71
2022/11/11 04:33:57;;;;;;;0.90;0.90;;;;;;;13.30;100.00;101203.50;5024055;28;20198;-70
2022/11/11 04:36:23;;;;;;;0.60;0.60;;;;;;;13.32;100.00;101220.00;5089822;28;20602;-71
2022/11/11 04:41:34;;;;;;;0.70;0.70;;;;;;;13.29;100.00;101204.31;5088932;28;20236;-70
2022/11/11 04:46:45;;;;;;;0.60;0.60;;;;;;;13.25;100.00;101225.94;5071140;28;20457;-71
2022/11/11 04:49:13;;;;;;;0.68;0.68;;;;;;;13.31;100.00;101228.66;5072392;28;20203;-72
2022/11/11 04:54:24;;;;;;;2.00;1.98;;;;;;;13.20;100.00;101211.91;5074817;28;20202;-71
2022/11/11 04:56:50;;;;;;;0.65;0.65;;;;;;;13.16;100.00;101199.66;5088475;28;20202;-71
2022/11/11 04:59:17;;;;;;;0.50;0.50;;;;;;;13.23;100.00;101227.63;5071437;28;20631;-72
2022/11/11 05:04:29;;;;;;;0.80;0.80;;;;;;;13.30;100.00;101233.84;5071129;28;20198;-72
2022/11/11 05:09:40;;;;;;;0.98;0.98;;;;;;;13.33;100.00;101257.38;5089350;28;20680;-72
2022/11/11 05:12:07;;;;;;;1.17;1.00;;;;;;;13.30;100.00;101266.00;5089515;28;20194;-72
2022/11/11 05:22:47;;;;;;;1.00;1.00;;;;;;;13.37;100.00;101280.03;5024986;28;20293;-71
2022/11/11 05:25:25;;;;;;;1.00;1.00;;;;;;;13.32;100.00;101290.34;5028131;28;20281;-72
2022/11/11 05:27:53;;;;;;;0.98;0.98;;;;;;;13.18;100.00;101255.28;5028185;28;20200;-72
2022/11/11 05:30:21;;;;;;;0.60;0.60;;;;;;;13.40;100.00;101299.22;5030036;28;20205;-72
2022/11/11 05:32:48;;;;;;;0.50;0.50;;;;;;;13.41;100.00;101303.56;5033973;28;20231;-72
2022/11/11 05:35:18;;;;;;;0.70;0.70;;;;;;;13.62;100.00;101311.03;5029103;28;20212;-72
2022/11/11 05:38:19;;;;;;;0.60;0.60;;;;;;;13.64;100.00;101317.13;5027921;28;20204;-71
2022/11/11 05:40:33;;;;;;;0.50;0.50;;;;;;;13.61;100.00;101329.22;5023967;28;20664;-71
2022/11/11 05:43:00;;;;;;;0.60;0.60;;;;;;;13.49;100.00;101318.50;4993014;28;20204;-71
2022/11/11 05:45:27;;;;;;;0.57;0.57;;;;;;;13.57;100.00;101332.59;5007589;28;20340;-71
2022/11/11 05:47:53;;;;;;;1.85;0.95;;;;;;;13.35;100.00;101342.50;5025495;28;20200;-73
2022/11/11 05:50:21;;;;;;;1.60;1.50;;;;;;;12.38;100.00;101251.50;5043796;28;20199;-72
2022/11/11 05:52:49;;;;;;;1.45;1.45;;;;;;;12.49;100.00;101319.44;5014364;28;20806;-72
2022/11/11 05:55:16;;;;;;;1.17;1.17;;;;;;;12.67;100.00;101353.75;5079380;28;20285;-73
2022/11/11 05:57:43;;;;;;;0.63;0.63;;;;;;;12.57;100.00;101343.06;5070864;28;20203;-73
2022/11/11 06:00:10;;;;;;;1.05;1.05;;;;;;;12.54;100.00;101351.66;5081719;28;20195;-72
2022/11/11 06:02:38;;;;;;;1.05;1.05;;;;;;;12.31;100.00;101343.22;5015236;28;20610;-73
2022/11/11 06:05:06;;;;;;;3.95;1.77;;;;;;;12.02;100.00;101333.69;5057179;28;20198;-72
2022/11/11 06:07:38;;;;;;;2.20;2.10;;;;;;;12.06;100.00;101348.56;5088022;28;20690;-72
2022/11/11 06:15:30;;;;;;;4.57;1.02;;;;;;;12.06;100.00;101350.28;5000812;28;20213;-72
2022/11/11 06:17:57;;;;;;;0.70;0.70;;;;;;;12.19;100.00;101353.28;5003168;28;20205;-73
2022/11/11 06:20:24;;;;;;;0.80;0.80;;;;;;;12.20;100.00;101338.56;5006998;28;20196;-73
2022/11/11 06:22:58;;;;;;;0.80;0.80;;;;;;;12.40;100.00;101372.09;4959436;28;20211;-73
2022/11/11 06:28:11;;;;;;;1.08;1.08;;;;;;;12.50;100.00;101380.16;5000745;28;20228;-69
2022/11/11 06:30:39;;;;;;;0.60;0.60;;;;;;;12.46;100.00;101362.69;5011743;28;20396;-72
2022/11/11 06:33:07;;;;;;;0.88;0.88;;;;;;;12.57;100.00;101366.47;4972870;28;20232;-71
2022/11/11 06:35:34;;;;;;;0.73;0.73;;;;;;;12.68;100.00;101397.16;4953556;28;20279;-72
2022/11/11 06:38:02;;;;;;;1.08;1.05;;;;;;;12.61;100.00;101403.03;4991918;28;20636;-73
2022/11/11 06:40:30;;;;;;;0.90;0.90;;;;;;;12.34;100.00;101395.31;5004045;28;20232;-70
2022/11/11 06:42:57;;;;;;;0.88;0.88;;;;;;;12.34;100.00;101395.31;5011028;28;20255;-71
2022/11/11 06:45:24;;;;;;;0.70;0.70;;;;;;;12.38;100.00;101412.78;4959397;28;20209;-71
2022/11/11 06:47:51;;;;;;;0.73;0.73;;;;;;;12.33;100.00;101400.50;5007247;28;20259;-72
2022/11/11 06:50:18;;;;;;;0.77;0.77;;;;;;;12.32;100.00;101407.41;4970022;28;20204;-72
2022/11/11 06:52:45;;;;;;;1.15;1.15;;;;;;;12.29;100.00;101407.31;4977108;28;20199;-72
2022/11/11 06:55:16;;;;;;;0.60;0.60;;;;;;;12.23;100.00;101403.66;5066175;28;20732;-73
2022/11/11 06:57:43;;;;;;;0.70;0.70;;;;;;;12.02;100.00;101395.22;5047606;28;20311;-73
2022/11/11 07:00:11;;;;;;;2.92;2.72;;;;;;;12.09;100.00;101415.38;5037391;28;20207;-73
2022/11/11 07:02:37;;;;;;;0.80;0.80;;;;;;;12.11;100.00;101424.97;5025421;28;20756;-72
2022/11/11 07:05:05;;;;;;;0.90;0.90;;;;;;;12.17;100.00;101417.34;5071009;28;20202;-73
2022/11/11 07:07:32;;;;;;;0.80;0.80;;;;;;;12.18;100.00;101429.53;5072723;28;20227;-73
2022/11/11 07:10:00;;;;;;;0.73;0.73;;;;;;;12.22;100.00;101434.00;5037224;28;20203;-73
2022/11/11 07:12:29;;;;;;;0.80;0.80;;;;;;;12.21;100.00;101436.53;5072482;28;20213;-72
2022/11/11 07:14:55;;;;;;;0.60;0.60;;;;;;;12.06;100.00;101439.53;5072399;28;20700;-73
2022/11/11 07:17:22;;;;;;;0.90;0.90;;;;;;;12.05;100.00;101458.59;5065170;28;20199;-73
2022/11/11 07:19:49;;;;;;;0.80;0.80;;;;;;;11.92;100.00;101459.03;5065081;28;20199;-73
2022/11/11 07:22:16;;;;;;;0.60;0.60;;;;;;;11.68;100.00;101429.63;5068227;28;20191;-73
2022/11/11 07:24:42;;;;;;;0.80;0.80;;;;;;;11.81;100.00;101455.22;5062986;28;20205;-72
2022/11/11 07:27:09;;;;;;;0.80;0.80;;;;;;;11.72;100.00;101462.72;5071841;28;20226;-72
2022/11/11 07:29:37;;;;;;;0.90;0.90;;;;;;;11.62;100.00;101471.91;5072535;28;20198;-71
2022/11/11 07:32:04;;;;;;;0.82;0.82;;;;;;;11.67;100.00;101466.84;5072159;28;20234;-71
2022/11/11 07:34:31;;;;;;;0.80;0.80;;;;;;;11.73;100.00;101480.09;5072209;28;20206;-71
2022/11/11 07:36:58;;;;;;;0.90;0.90;;;;;;;11.73;100.00;101469.69;5072054;28;20240;-72
2022/11/11 07:39:25;;;;;;;1.33;1.33;;;;;;;11.76;100.00;101467.19;5071724;28;20206;-71
2022/11/11 07:41:51;;;;;;;1.13;1.13;;;;;;;11.84;100.00;101474.38;5071989;28;20202;-69
2022/11/11 07:44:18;;;;;;;1.13;1.13;;;;;;;11.80;100.00;101482.06;5072081;28;20206;-72
2022/11/11 07:46:46;;;;;;;1.23;1.23;;;;;;;11.74;100.00;101480.13;5071810;28;20223;-72
2022/11/11 07:49:13;;;;;;;2.28;1.92;;;;;;;11.79;100.00;101475.06;5071878;28;20202;-71
2022/11/11 07:51:40;;;;;;;0.90;0.90;;;;;;;11.78;100.00;101469.00;5071721;28;20203;-72
2022/11/11 07:54:07;;;;;;;1.13;1.13;;;;;;;11.78;100.00;101478.50;5071632;28;20203;-71
2022/11/11 07:56:33;;;;;;;0.75;0.75;;;;;;;11.85;100.00;101483.06;5071688;28;20210;-71
2022/11/11 07:59:00;;;;;;;0.60;0.60;;;;;;;11.84;100.00;101484.78;5071712;28;20599;-71
2022/11/11 08:01:27;;;;;;;1.00;1.00;;;;;;;11.76;100.00;101486.25;5071383;28;20214;-72
2022/11/11 08:03:55;;;;;;;0.70;0.70;;;;;;;11.79;100.00;101490.66;5071508;28;20606;-72
2022/11/11 08:06:22;;;;;;;0.70;0.70;;;;;;;11.79;100.00;101485.47;5067558;28;20607;-72
2022/11/11 08:08:50;;;;;;;0.60;0.60;;;;;;;11.67;100.00;101448.66;5061383;28;20710;-72
2022/11/11 08:13:39;;;;;;;0.60;0.60;;;;;;;11.70;100.00;101474.75;5069236;28;20207;-72
2022/11/11 08:14:03;;;;;;;1.17;1.17;;;;;;;11.34;100.00;101412.94;5062514;28;20615;-71
2022/11/11 08:16:30;;;;;;;0.70;0.70;;;;;;;11.83;100.00;101492.53;5068227;28;20523;-71
2022/11/11 08:18:58;;;;;;;0.63;0.63;;;;;;;11.94;100.00;101491.16;5056664;28;20199;-72
2022/11/11 08:21:25;;;;;;;0.90;0.90;;;;;;;11.88;100.00;101501.34;5036096;28;20675;-71
2022/11/11 08:23:52;;;;;;;0.70;0.70;;;;;;;11.96;100.00;101507.69;5071229;28;20195;-71
2022/11/11 08:26:20;;;;;;;0.88;0.88;;;;;;;12.02;100.00;101507.88;5042392;28;20226;-71
2022/11/11 08:28:47;;;;;;;0.70;0.70;;;;;;;12.15;100.00;101510.03;5067391;28;20282;-71
2022/11/11 08:31:14;;;;;;;0.85;0.85;;;;;;;12.03;100.00;101488.84;5070797;28;20203;-71
2022/11/11 08:33:41;;;;;;;0.60;0.60;;;;;;;12.26;100.00;101532.06;5070836;28;20209;-71
2022/11/11 08:36:10;;;;;;;3.40;1.90;;;;;;;12.33;100.00;101544.44;5070914;28;20198;-71
2022/11/11 08:38:37;;;;;;;1.00;1.00;;;;;;;12.26;100.00;101554.59;5070027;28;20602;-71
2022/11/11 08:41:05;;;;;;;0.82;0.82;;;;;;;12.20;100.00;101554.41;5071077;28;20256;-71
2022/11/11 08:43:32;;;;;;;0.75;0.75;;;;;;;12.16;100.00;101556.03;5070911;28;20206;-71
2022/11/11 08:45:59;;;;;;;0.70;0.70;;;;;;;12.02;100.00;101551.22;5070599;28;20198;-70
2022/11/11 08:48:26;;;;;;;0.70;0.70;;;;;;;11.92;100.00;101565.59;5070469;28;20214;-70
2022/11/11 08:50:53;;;;;;;1.48;1.48;;;;;;;12.07;100.00;101575.63;5035372;28;20206;-70
2022/11/11 08:53:21;;;;;;;0.70;0.70;;;;;;;12.14;100.00;101564.59;5070703;28;20198;-70
2022/11/11 08:55:48;;;;;;;0.60;0.60;;;;;;;12.29;100.00;101568.56;5056380;28;20200;-69
2022/11/11 08:58:15;;;;;;;1.88;1.88;;;;;;;12.24;100.00;101564.94;5070756;28;20210;-70
2022/11/11 09:00:42;;;;;;;0.88;0.88;;;;;;;11.94;100.00;101571.75;5051575;28;20202;-70
2022/11/11 09:03:11;;;;;;;0.60;0.60;;;;;;;12.01;100.00;101565.91;5070269;28;20222;-70
2022/11/11 09:05:39;;;;;;;1.05;1.05;;;;;;;11.92;100.00;101560.41;5070612;28;20548;-70
2022/11/11 09:08:07;;;;;;;0.70;0.70;;;;;;;11.90;100.00;101541.28;5066343;28;20219;-72
2022/11/11 09:10:36;;;;;;;0.68;0.68;;;;;;;11.92;100.00;101539.59;5060754;28;20202;-71
2022/11/11 09:13:03;;;;;;;1.13;1.13;;;;;;;12.03;100.00;101553.84;5070274;28;20260;-72
2022/11/11 09:15:31;;;;;;;0.80;0.80;;;;;;;12.11;100.00;101567.97;5070330;28;20650;-71
2022/11/11 09:17:58;;;;;;;0.90;0.90;;;;;;;12.03;100.00;101543.44;5058938;28;20204;-72
2022/11/11 09:20:25;;;;;;;0.70;0.70;;;;;;;12.15;100.00;101559.44;5067677;28;20191;-71
2022/11/11 09:22:52;;;;;;;0.60;0.60;;;;;;;12.22;100.00;101551.00;5070369;28;20257;-71
2022/11/11 09:25:20;;;;;;;0.80;0.80;;;;;;;12.19;100.00;101550.91;5068388;28;20285;-71
2022/11/11 09:27:56;;;;;;;1.10;1.10;;;;;;;12.11;100.00;101548.91;5058038;28;20226;-71
2022/11/11 09:30:22;;;;;;;0.70;0.70;;;;;;;12.14;100.00;101539.47;5070084;28;20232;-71
2022/11/11 09:32:49;;;;;;;0.85;0.85;;;;;;;12.25;100.00;101534.63;5070026;28;20226;-70
2022/11/11 09:35:16;;;;;;;0.70;0.70;;;;;;;12.26;100.00;101532.06;5070224;28;20207;-70
2022/11/11 09:37:52;;;;;;;0.70;0.70;;;;;;;12.16;100.00;101534.34;5040516;28;20218;-71
2022/11/11 09:40:23;;;;;;;2.13;2.03;;;;;;;12.21;100.00;101532.75;5045305;28;20207;-70
2022/11/11 09:43:02;;;;;;;0.70;0.70;;;;;;;12.24;100.00;101538.94;5060585;28;20205;-70
2022/11/11 09:45:41;;;;;;;1.35;1.35;;;;;;;12.15;100.00;101541.25;5070019;28;20695;-70
2022/11/11 09:48:25;;;;;;;1.33;1.23;;;;;;;12.25;100.00;101532.91;5070399;28;20222;-70
2022/11/11 09:50:57;;;;;;;1.40;1.40;;;;;;;12.52;100.00;101538.06;5060485;28;20206;-69
2022/11/11 09:53:30;;;;;;;1.27;1.27;;;;;;;12.52;100.00;101540.66;5074242;28;20263;-69
2022/11/11 09:56:01;;;;;;;0.85;0.85;;;;;;;12.38;100.00;101522.03;5053928;28;20212;-70
2022/11/11 09:58:35;;;;;;;0.60;0.60;;;;;;;12.35;100.00;101514.13;5053926;28;20218;-71
2022/11/11 10:01:08;;;;;;;1.02;1.02;;;;;;;12.47;100.00;101546.56;5060031;28;20194;-71
2022/11/11 10:03:40;;;;;;;0.80;0.80;;;;;;;12.47;100.00;101536.16;5055543;28;20264;-70
2022/11/11 10:06:13;;;;;;;0.70;0.70;;;;;;;12.65;100.00;101553.22;5060229;28;20259;-71
2022/11/11 10:08:46;;;;;;;0.80;0.80;;;;;;;12.60;100.00;101548.69;5073779;28;20662;-71
2022/11/11 10:11:22;;;;;;;0.60;0.60;;;;;;;12.67;100.00;101558.44;5025623;28;20229;-71
2022/11/11 10:13:50;;;;;;;0.93;0.93;;;;;;;12.38;100.00;101541.94;5059912;28;20202;-70
2022/11/11 10:16:29;;;;;;;0.80;0.80;;;;;;;12.25;100.00;101551.09;5059372;28;20210;-71
2022/11/11 10:19:08;;;;;;;10.05;3.42;;;;;;;12.29;100.00;101552.97;5073399;28;20666;-71
2022/11/11 10:21:41;;;;;;;0.65;0.65;;;;;;;12.25;100.00;101563.22;5073591;28;20218;-71
2022/11/11 10:24:15;;;;;;;0.70;0.70;;;;;;;12.22;100.00;101553.63;5059379;28;20639;-72
2022/11/11 10:26:45;;;;;;;0.82;0.82;;;;;;;12.15;100.00;101558.56;5073451;28;20211;-72
2022/11/11 10:29:17;;;;;;;2.40;2.25;;;;;;;12.35;100.00;101532.34;5073448;28;20203;-71
2022/11/11 10:31:48;;;;;;;1.27;1.27;;;;;;;12.07;100.00;101497.63;5073267;28;20326;-71
2022/11/11 10:34:17;;;;;;;0.90;0.90;;;;;;;12.29;100.00;101558.16;5037560;28;20264;-70
2022/11/11 10:36:49;;;;;;;0.60;0.60;;;;;;;12.43;100.00;101532.59;5073000;28;20198;-74
2022/11/11 10:39:24;;;;;;;1.30;1.30;;;;;;;12.52;100.00;101558.00;5038911;28;20264;-72
2022/11/11 10:41:52;;;;;;;0.70;0.70;;;;;;;12.46;100.00;101560.41;5073266;28;20198;-72
2022/11/11 10:44:22;;;;;;;0.57;0.57;;;;;;;12.38;100.00;101537.63;5073307;28;20210;-72
2022/11/11 10:46:58;;;;;;;2.28;2.17;;;;;;;11.94;100.00;101470.38;5072874;28;20252;-72
2022/11/11 10:49:31;;;;;;;1.33;1.33;;;;;;;12.57;100.00;101561.63;5058813;28;20209;-72
2022/11/11 10:52:07;;;;;;;1.33;1.33;;;;;;;12.51;100.00;101528.50;5073151;28;20279;-71
2022/11/11 10:54:39;;;;;;;1.27;1.27;;;;;;;12.73;100.00;101550.84;5072972;28;20195;-72
2022/11/11 10:57:11;;;;;;;0.60;0.60;;;;;;;12.46;100.00;101565.59;5061581;28;20203;-72
2022/11/11 10:59:48;;;;;;;1.02;1.02;;;;;;;12.46;100.00;101565.59;5070588;28;20651;-71
2022/11/11 11:02:21;;;;;;;2.45;1.60;;;;;;;12.46;100.00;101560.41;5072609;28;20206;-72
2022/11/11 11:04:52;;;;;;;0.90;0.90;;;;;;;12.39;100.00;101522.91;5072629;28;20191;-72
2022/11/11 11:07:24;;;;;;;0.60;0.60;;;;;;;12.60;100.00;101556.50;5061236;28;20238;-72
2022/11/11 11:09:56;;;;;;;1.10;1.10;;;;;;;12.45;100.00;101548.25;5071482;28;20207;-72
2022/11/11 11:12:32;;;;;;;0.85;0.85;;;;;;;12.43;100.00;101559.47;5072800;28;20213;-72
2022/11/11 11:15:04;;;;;;;0.90;0.90;;;;;;;12.42;100.00;101552.50;5072483;28;20201;-72
2022/11/11 11:17:37;;;;;;;1.10;1.10;;;;;;;12.32;100.00;101549.56;5050173;28;20316;-71
2022/11/11 11:20:11;;;;;;;1.08;1.08;;;;;;;12.32;100.00;101559.97;5052997;28;20203;-73
2022/11/11 11:22:50;;;;;;;0.60;0.60;;;;;;;12.51;100.00;101545.84;5072438;28;20211;-72
2022/11/11 11:25:18;;;;;;;0.60;0.60;;;;;;;12.55;100.00;101556.38;5072164;28;20194;-72
2022/11/11 11:27:46;;;;;;;0.88;0.88;;;;;;;12.49;100.00;101555.28;5072239;28;20306;-72
2022/11/11 11:30:17;;;;;;;0.70;0.70;;;;;;;12.42;100.00;101539.50;5058554;28;20239;-71
2022/11/11 11:32:57;;;;;;;1.60;1.50;;;;;;;12.49;100.00;101518.88;5059217;28;20227;-73
2022/11/11 11:35:32;;;;;;;0.60;0.60;;;;;;;12.40;100.00;101494.38;5072262;28;20202;-73
2022/11/11 11:37:59;;;;;;;0.85;0.85;;;;;;;12.48;100.00;101550.94;5072134;28;20202;-72
2022/11/11 11:40:27;;;;;;;1.45;1.45;;;;;;;12.40;100.00;101540.31;5071861;28;20211;-73
2022/11/11 11:42:54;;;;;;;0.70;0.70;;;;;;;12.42;100.00;101518.69;5052203;28;20203;-73
2022/11/11 11:45:25;;;;;;;3.20;0.90;;;;;;;12.40;100.00;101512.56;5051864;28;20656;-74
2022/11/11 11:48:05;;;;;;;0.60;0.60;;;;;;;12.53;100.00;101541.53;5052168;28;20228;-73
2022/11/11 11:50:42;;;;;;;0.70;0.70;;;;;;;12.49;100.00;101544.88;5051900;28;20230;-73
2022/11/11 11:53:26;;;;;;;0.63;0.63;;;;;;;12.46;100.00;101534.38;5051802;28;20277;-74
2022/11/11 11:55:58;;;;;;;0.70;0.70;;;;;;;12.18;100.00;101499.72;5051702;28;20249;-73
2022/11/11 11:58:37;;;;;;;0.80;0.80;;;;;;;12.33;100.00;101535.75;5051792;28;20624;-73
2022/11/11 12:01:11;;;;;;;2.60;1.05;;;;;;;12.29;100.00;101545.16;5032960;28;20207;-73
2022/11/11 12:04:07;;;;;;;0.68;0.68;;;;;;;12.32;100.00;101541.78;5051646;28;20206;-73
2022/11/11 12:06:42;;;;;;;0.70;0.70;;;;;;;12.22;100.00;101513.72;5051809;28;20213;-73
2022/11/11 12:09:17;;;;;;;0.70;0.70;;;;;;;12.42;100.00;101538.63;5051360;28;20230;-73
2022/11/11 12:11:57;;;;;;;0.60;0.60;;;;;;;12.39;100.00;101531.59;5050724;28;20206;-73
2022/11/11 12:14:41;;;;;;;0.90;0.90;;;;;;;12.17;100.00;101515.28;5051436;28;20202;-73
2022/11/11 12:17:23;;;;;;;0.75;0.75;;;;;;;12.43;100.00;101541.28;5051668;28;20206;-73
2022/11/11 12:20:01;;;;;;;0.60;0.60;;;;;;;12.26;100.00;101534.69;5051504;28;20191;-73
2022/11/11 12:22:44;;;;;;;0.70;0.70;;;;;;;12.32;100.00;101550.47;5032520;28;20196;-73
2022/11/11 12:25:20;;;;;;;0.60;0.60;;;;;;;12.21;100.00;101550.94;5051690;28;20712;-73
2022/11/11 12:27:57;;;;;;;0.60;0.60;;;;;;;12.22;100.00;101551.00;5051341;28;20226;-73
2022/11/11 12:30:27;;;;;;;0.60;0.60;;;;;;;12.25;100.00;101550.22;5051300;28;20199;-72
2022/11/11 12:33:33;;;;;;;0.70;0.70;;;;;;;12.21;100.00;101551.84;5050828;28;20738;-72
2022/11/11 12:36:09;;;;;;;0.70;0.70;;;;;;;12.06;100.00;101555.66;5028498;28;20635;-71
2022/11/11 12:38:50;;;;;;;0.80;0.80;;;;;;;12.01;100.00;101565.03;5028458;28;20204;-73
2022/11/11 12:41:25;;;;;;;0.80;0.80;;;;;;;11.96;100.00;101567.47;4995271;28;20226;-71
2022/11/11 12:44:01;;;;;;;0.70;0.70;;;;;;;12.07;100.00;101563.50;5028374;28;20290;-72
2022/11/11 12:46:37;;;;;;;0.60;0.60;;;;;;;11.94;100.00;101569.16;5028321;28;20285;-72
2022/11/11 12:49:23;;;;;;;0.60;0.60;;;;;;;11.90;100.00;101567.28;5028334;28;20230;-72
2022/11/11 12:51:56;;;;;;;0.80;0.80;;;;;;;11.84;100.00;101561.88;5028364;28;20650;-72